sensor_id;sensor_type;location;lat;lon;timestamp;P1;durP1;ratioP1;P2;durP2;ratioP2
64712;SDS011;51140;45.340;5.980;2024-03-25T00:00:42;6.50;;;2.70;;
64712;SDS011;51140;45.340;5.980;2024-03-25T00:03:08;6.40;;;2.47;;
64712;SDS011;51140;45.340;5.980;2024-03-25T00:05:33;5.60;;;2.40;;
64712;SDS011;51140;45.340;5.980;2024-03-25T00:07:59;6.18;;;2.25;;
64712;SDS011;51140;45.340;5.980;2024-03-25T00:10:24;7.03;;;2.42;;
64712;SDS011;51140;45.340;5.980;2024-03-25T00:12:49;6.70;;;2.30;;
64712;SDS011;51140;45.340;5.980;2024-03-25T00:15:19;5.95;;;2.45;;
64712;SDS011;51140;45.340;5.980;2024-03-25T00:17:45;6.15;;;1.83;;
64712;SDS011;51140;45.340;5.980;2024-03-25T00:20:14;5.45;;;2.00;;
64712;SDS011;51140;45.340;5.980;2024-03-25T00:22:40;6.90;;;2.42;;
64712;SDS011;51140;45.340;5.980;2024-03-25T00:25:06;8.10;;;3.17;;
64712;SDS011;51140;45.340;5.980;2024-03-25T00:27:32;8.32;;;3.10;;
64712;SDS011;51140;45.340;5.980;2024-03-25T00:29:57;6.28;;;2.00;;
64712;SDS011;51140;45.340;5.980;2024-03-25T00:32:23;5.15;;;1.83;;
64712;SDS011;51140;45.340;5.980;2024-03-25T00:34:48;6.70;;;2.42;;
64712;SDS011;51140;45.340;5.980;2024-03-25T00:37:14;5.05;;;2.00;;
64712;SDS011;51140;45.340;5.980;2024-03-25T00:39:39;6.35;;;2.53;;
64712;SDS011;51140;45.340;5.980;2024-03-25T00:42:04;5.40;;;1.65;;
64712;SDS011;51140;45.340;5.980;2024-03-25T00:44:30;5.65;;;2.15;;
64712;SDS011;51140;45.340;5.980;2024-03-25T00:46:55;6.47;;;2.13;;
64712;SDS011;51140;45.340;5.980;2024-03-25T00:49:21;6.80;;;2.83;;
64712;SDS011;51140;45.340;5.980;2024-03-25T00:51:49;6.50;;;2.25;;
64712;SDS011;51140;45.340;5.980;2024-03-25T00:54:15;5.65;;;2.67;;
64712;SDS011;51140;45.340;5.980;2024-03-25T00:56:40;10.90;;;3.13;;
64712;SDS011;51140;45.340;5.980;2024-03-25T00:59:05;7.20;;;3.15;;
64712;SDS011;51140;45.340;5.980;2024-03-25T01:01:34;7.53;;;2.22;;
64712;SDS011;51140;45.340;5.980;2024-03-25T01:04:01;6.63;;;2.30;;
64712;SDS011;51140;45.340;5.980;2024-03-25T01:06:26;5.40;;;2.00;;
64712;SDS011;51140;45.340;5.980;2024-03-25T01:08:52;4.78;;;1.90;;
64712;SDS011;51140;45.340;5.980;2024-03-25T01:11:17;7.35;;;2.67;;
64712;SDS011;51140;45.340;5.980;2024-03-25T01:13:43;6.68;;;2.00;;
64712;SDS011;51140;45.340;5.980;2024-03-25T01:16:08;5.50;;;2.22;;
64712;SDS011;51140;45.340;5.980;2024-03-25T01:18:34;5.75;;;1.98;;
64712;SDS011;51140;45.340;5.980;2024-03-25T01:21:00;5.38;;;2.17;;
64712;SDS011;51140;45.340;5.980;2024-03-25T01:23:25;6.72;;;1.60;;
64712;SDS011;51140;45.340;5.980;2024-03-25T01:25:51;6.25;;;1.75;;
64712;SDS011;51140;45.340;5.980;2024-03-25T01:28:16;7.25;;;1.75;;
64712;SDS011;51140;45.340;5.980;2024-03-25T01:30:41;5.63;;;1.60;;
64712;SDS011;51140;45.340;5.980;2024-03-25T01:33:07;4.53;;;1.48;;
64712;SDS011;51140;45.340;5.980;2024-03-25T01:35:32;5.43;;;1.45;;
64712;SDS011;51140;45.340;5.980;2024-03-25T01:37:57;4.63;;;1.52;;
64712;SDS011;51140;45.340;5.980;2024-03-25T01:40:23;4.47;;;1.35;;
64712;SDS011;51140;45.340;5.980;2024-03-25T01:42:58;7.07;;;1.63;;
64712;SDS011;51140;45.340;5.980;2024-03-25T01:47:51;3.58;;;1.20;;
64712;SDS011;51140;45.340;5.980;2024-03-25T01:50:17;3.83;;;1.70;;
64712;SDS011;51140;45.340;5.980;2024-03-25T01:52:44;5.80;;;1.45;;
64712;SDS011;51140;45.340;5.980;2024-03-25T01:55:10;4.57;;;1.40;;
64712;SDS011;51140;45.340;5.980;2024-03-25T01:57:41;4.93;;;1.58;;
64712;SDS011;51140;45.340;5.980;2024-03-25T02:00:07;5.13;;;1.42;;
64712;SDS011;51140;45.340;5.980;2024-03-25T02:02:34;5.80;;;1.55;;
64712;SDS011;51140;45.340;5.980;2024-03-25T02:05:02;3.47;;;1.30;;
64712;SDS011;51140;45.340;5.980;2024-03-25T02:07:28;5.22;;;1.10;;
64712;SDS011;51140;45.340;5.980;2024-03-25T02:09:54;4.00;;;1.27;;
64712;SDS011;51140;45.340;5.980;2024-03-25T02:12:20;5.07;;;1.00;;
64712;SDS011;51140;45.340;5.980;2024-03-25T02:14:46;2.67;;;1.02;;
64712;SDS011;51140;45.340;5.980;2024-03-25T02:17:12;3.03;;;1.00;;
64712;SDS011;51140;45.340;5.980;2024-03-25T02:19:37;3.67;;;1.00;;
64712;SDS011;51140;45.340;5.980;2024-03-25T02:22:05;2.53;;;1.00;;
64712;SDS011;51140;45.340;5.980;2024-03-25T02:24:30;3.60;;;1.30;;
64712;SDS011;51140;45.340;5.980;2024-03-25T02:26:58;2.75;;;1.08;;
64712;SDS011;51140;45.340;5.980;2024-03-25T02:29:32;3.50;;;1.00;;
64712;SDS011;51140;45.340;5.980;2024-03-25T02:31:58;4.15;;;1.00;;
64712;SDS011;51140;45.340;5.980;2024-03-25T02:34:23;3.75;;;1.02;;
64712;SDS011;51140;45.340;5.980;2024-03-25T02:36:48;4.10;;;1.40;;
64712;SDS011;51140;45.340;5.980;2024-03-25T02:39:14;3.65;;;1.05;;
64712;SDS011;51140;45.340;5.980;2024-03-25T02:41:39;3.67;;;1.20;;
64712;SDS011;51140;45.340;5.980;2024-03-25T02:44:05;4.75;;;1.10;;
64712;SDS011;51140;45.340;5.980;2024-03-25T02:46:30;3.47;;;1.20;;
64712;SDS011;51140;45.340;5.980;2024-03-25T02:48:56;4.72;;;1.08;;
64712;SDS011;51140;45.340;5.980;2024-03-25T02:51:21;3.95;;;1.20;;
64712;SDS011;51140;45.340;5.980;2024-03-25T02:53:46;4.18;;;1.35;;
64712;SDS011;51140;45.340;5.980;2024-03-25T02:56:12;4.80;;;1.48;;
64712;SDS011;51140;45.340;5.980;2024-03-25T02:58:37;4.35;;;1.00;;
64712;SDS011;51140;45.340;5.980;2024-03-25T03:01:02;5.38;;;1.13;;
64712;SDS011;51140;45.340;5.980;2024-03-25T03:03:28;3.28;;;1.10;;
64712;SDS011;51140;45.340;5.980;2024-03-25T03:05:53;2.97;;;1.20;;
64712;SDS011;51140;45.340;5.980;2024-03-25T03:08:18;3.70;;;1.15;;
64712;SDS011;51140;45.340;5.980;2024-03-25T03:10:44;3.67;;;1.30;;
64712;SDS011;51140;45.340;5.980;2024-03-25T03:13:09;5.40;;;1.40;;
64712;SDS011;51140;45.340;5.980;2024-03-25T03:15:35;3.13;;;1.20;;
64712;SDS011;51140;45.340;5.980;2024-03-25T03:18:01;4.15;;;1.33;;
64712;SDS011;51140;45.340;5.980;2024-03-25T03:20:26;3.42;;;1.30;;
64712;SDS011;51140;45.340;5.980;2024-03-25T03:22:51;5.53;;;1.70;;
64712;SDS011;51140;45.340;5.980;2024-03-25T03:25:17;3.65;;;1.10;;
64712;SDS011;51140;45.340;5.980;2024-03-25T03:27:42;3.65;;;1.55;;
64712;SDS011;51140;45.340;5.980;2024-03-25T03:30:07;4.65;;;1.50;;
64712;SDS011;51140;45.340;5.980;2024-03-25T03:32:34;3.97;;;1.25;;
64712;SDS011;51140;45.340;5.980;2024-03-25T03:34:59;4.43;;;1.30;;
64712;SDS011;51140;45.340;5.980;2024-03-25T03:37:24;3.90;;;1.30;;
64712;SDS011;51140;45.340;5.980;2024-03-25T03:39:50;3.65;;;1.23;;
64712;SDS011;51140;45.340;5.980;2024-03-25T03:42:15;5.15;;;1.30;;
64712;SDS011;51140;45.340;5.980;2024-03-25T03:44:40;4.68;;;1.48;;
64712;SDS011;51140;45.340;5.980;2024-03-25T03:47:06;6.53;;;1.58;;
64712;SDS011;51140;45.340;5.980;2024-03-25T03:49:31;6.07;;;1.95;;
64712;SDS011;51140;45.340;5.980;2024-03-25T03:51:56;6.45;;;1.80;;
64712;SDS011;51140;45.340;5.980;2024-03-25T03:54:22;6.53;;;2.35;;
64712;SDS011;51140;45.340;5.980;2024-03-25T03:56:47;5.32;;;1.85;;
64712;SDS011;51140;45.340;5.980;2024-03-25T03:59:13;4.45;;;1.63;;
64712;SDS011;51140;45.340;5.980;2024-03-25T04:01:38;3.88;;;1.60;;
64712;SDS011;51140;45.340;5.980;2024-03-25T04:04:03;3.15;;;1.20;;
64712;SDS011;51140;45.340;5.980;2024-03-25T04:06:30;4.00;;;1.38;;
64712;SDS011;51140;45.340;5.980;2024-03-25T04:08:55;4.90;;;1.75;;
64712;SDS011;51140;45.340;5.980;2024-03-25T04:11:20;4.40;;;1.50;;
64712;SDS011;51140;45.340;5.980;2024-03-25T04:13:46;6.43;;;1.60;;
64712;SDS011;51140;45.340;5.980;2024-03-25T04:16:12;4.90;;;1.65;;
64712;SDS011;51140;45.340;5.980;2024-03-25T04:18:37;7.30;;;1.83;;
64712;SDS011;51140;45.340;5.980;2024-03-25T04:21:02;3.65;;;1.60;;
64712;SDS011;51140;45.340;5.980;2024-03-25T04:23:29;4.65;;;1.70;;
64712;SDS011;51140;45.340;5.980;2024-03-25T04:25:54;5.55;;;1.50;;
64712;SDS011;51140;45.340;5.980;2024-03-25T04:28:20;3.97;;;1.50;;
64712;SDS011;51140;45.340;5.980;2024-03-25T04:30:51;4.72;;;1.50;;
64712;SDS011;51140;45.340;5.980;2024-03-25T04:33:18;4.28;;;1.50;;
64712;SDS011;51140;45.340;5.980;2024-03-25T04:35:44;5.32;;;1.58;;
64712;SDS011;51140;45.340;5.980;2024-03-25T04:38:09;4.72;;;1.60;;
64712;SDS011;51140;45.340;5.980;2024-03-25T04:40:35;3.72;;;1.48;;
64712;SDS011;51140;45.340;5.980;2024-03-25T04:43:00;3.58;;;1.38;;
64712;SDS011;51140;45.340;5.980;2024-03-25T04:45:27;4.78;;;1.63;;
64712;SDS011;51140;45.340;5.980;2024-03-25T04:47:53;4.55;;;1.42;;
64712;SDS011;51140;45.340;5.980;2024-03-25T04:50:18;6.25;;;1.75;;
64712;SDS011;51140;45.340;5.980;2024-03-25T04:52:43;4.90;;;1.50;;
64712;SDS011;51140;45.340;5.980;2024-03-25T04:55:09;3.33;;;1.40;;
64712;SDS011;51140;45.340;5.980;2024-03-25T04:57:34;4.45;;;1.42;;
64712;SDS011;51140;45.340;5.980;2024-03-25T04:59:59;4.43;;;1.30;;
64712;SDS011;51140;45.340;5.980;2024-03-25T05:02:24;3.38;;;1.20;;
64712;SDS011;51140;45.340;5.980;2024-03-25T05:04:50;5.35;;;1.30;;
64712;SDS011;51140;45.340;5.980;2024-03-25T05:07:15;8.65;;;1.65;;
64712;SDS011;51140;45.340;5.980;2024-03-25T05:09:41;4.82;;;1.55;;
64712;SDS011;51140;45.340;5.980;2024-03-25T05:12:06;3.95;;;1.30;;
64712;SDS011;51140;45.340;5.980;2024-03-25T05:14:31;4.65;;;1.35;;
64712;SDS011;51140;45.340;5.980;2024-03-25T05:16:57;4.85;;;1.42;;
64712;SDS011;51140;45.340;5.980;2024-03-25T05:19:22;4.70;;;1.55;;
64712;SDS011;51140;45.340;5.980;2024-03-25T05:21:48;4.10;;;1.58;;
64712;SDS011;51140;45.340;5.980;2024-03-25T05:24:13;4.00;;;1.30;;
64712;SDS011;51140;45.340;5.980;2024-03-25T05:26:38;5.32;;;1.48;;
64712;SDS011;51140;45.340;5.980;2024-03-25T05:29:04;4.32;;;1.40;;
64712;SDS011;51140;45.340;5.980;2024-03-25T05:31:30;3.90;;;1.40;;
64712;SDS011;51140;45.340;5.980;2024-03-25T05:33:55;5.50;;;1.45;;
64712;SDS011;51140;45.340;5.980;2024-03-25T05:36:21;3.90;;;1.40;;
64712;SDS011;51140;45.340;5.980;2024-03-25T05:38:46;4.38;;;1.60;;
64712;SDS011;51140;45.340;5.980;2024-03-25T05:41:12;3.90;;;1.10;;
64712;SDS011;51140;45.340;5.980;2024-03-25T05:43:37;2.58;;;1.10;;
64712;SDS011;51140;45.340;5.980;2024-03-25T05:46:03;3.25;;;1.10;;
64712;SDS011;51140;45.340;5.980;2024-03-25T05:48:29;3.92;;;1.40;;
64712;SDS011;51140;45.340;5.980;2024-03-25T05:51:04;4.90;;;1.33;;
64712;SDS011;51140;45.340;5.980;2024-03-25T05:53:30;3.50;;;1.42;;
64712;SDS011;51140;45.340;5.980;2024-03-25T05:55:56;6.03;;;1.38;;
64712;SDS011;51140;45.340;5.980;2024-03-25T05:58:22;5.47;;;1.42;;
64712;SDS011;51140;45.340;5.980;2024-03-25T06:00:47;3.50;;;1.13;;
64712;SDS011;51140;45.340;5.980;2024-03-25T06:03:14;3.97;;;1.30;;
64712;SDS011;51140;45.340;5.980;2024-03-25T06:05:40;3.83;;;1.20;;
64712;SDS011;51140;45.340;5.980;2024-03-25T06:08:06;3.55;;;1.15;;
64712;SDS011;51140;45.340;5.980;2024-03-25T06:10:36;3.35;;;1.13;;
64712;SDS011;51140;45.340;5.980;2024-03-25T06:13:02;3.00;;;1.40;;
64712;SDS011;51140;45.340;5.980;2024-03-25T06:15:28;4.00;;;1.27;;
64712;SDS011;51140;45.340;5.980;2024-03-25T06:17:53;2.65;;;1.10;;
64712;SDS011;51140;45.340;5.980;2024-03-25T06:20:19;7.43;;;2.97;;
64712;SDS011;51140;45.340;5.980;2024-03-25T06:22:44;5.40;;;2.00;;
64712;SDS011;51140;45.340;5.980;2024-03-25T06:25:09;5.45;;;2.28;;
64712;SDS011;51140;45.340;5.980;2024-03-25T06:27:35;6.32;;;3.22;;
64712;SDS011;51140;45.340;5.980;2024-03-25T06:30:00;6.60;;;2.70;;
64712;SDS011;51140;45.340;5.980;2024-03-25T06:32:44;3.60;;;1.30;;
64712;SDS011;51140;45.340;5.980;2024-03-25T06:35:28;3.72;;;1.15;;
64712;SDS011;51140;45.340;5.980;2024-03-25T06:37:54;3.92;;;1.40;;
64712;SDS011;51140;45.340;5.980;2024-03-25T06:40:19;3.42;;;1.20;;
64712;SDS011;51140;45.340;5.980;2024-03-25T06:42:44;3.97;;;1.60;;
64712;SDS011;51140;45.340;5.980;2024-03-25T06:45:10;9.80;;;2.35;;
64712;SDS011;51140;45.340;5.980;2024-03-25T06:47:35;6.30;;;2.88;;
64712;SDS011;51140;45.340;5.980;2024-03-25T06:50:00;6.88;;;3.40;;
64712;SDS011;51140;45.340;5.980;2024-03-25T06:52:26;8.32;;;3.38;;
64712;SDS011;51140;45.340;5.980;2024-03-25T06:54:51;8.55;;;3.50;;
64712;SDS011;51140;45.340;5.980;2024-03-25T06:57:17;7.95;;;3.30;;
64712;SDS011;51140;45.340;5.980;2024-03-25T06:59:42;10.52;;;3.60;;
64712;SDS011;51140;45.340;5.980;2024-03-25T07:02:07;10.77;;;2.95;;
64712;SDS011;51140;45.340;5.980;2024-03-25T07:04:32;7.63;;;2.70;;
64712;SDS011;51140;45.340;5.980;2024-03-25T07:06:58;8.80;;;2.42;;
64712;SDS011;51140;45.340;5.980;2024-03-25T07:09:23;6.15;;;2.35;;
64712;SDS011;51140;45.340;5.980;2024-03-25T07:11:49;5.35;;;1.77;;
64712;SDS011;51140;45.340;5.980;2024-03-25T07:14:14;5.72;;;1.67;;
64712;SDS011;51140;45.340;5.980;2024-03-25T07:16:40;4.28;;;1.65;;
64712;SDS011;51140;45.340;5.980;2024-03-25T07:19:05;4.60;;;1.73;;
64712;SDS011;51140;45.340;5.980;2024-03-25T07:21:31;5.70;;;1.70;;
64712;SDS011;51140;45.340;5.980;2024-03-25T07:23:56;4.47;;;1.75;;
64712;SDS011;51140;45.340;5.980;2024-03-25T07:26:21;5.72;;;1.52;;
64712;SDS011;51140;45.340;5.980;2024-03-25T07:28:47;4.00;;;1.33;;
64712;SDS011;51140;45.340;5.980;2024-03-25T07:31:12;3.40;;;1.20;;
64712;SDS011;51140;45.340;5.980;2024-03-25T07:33:38;4.00;;;1.30;;
64712;SDS011;51140;45.340;5.980;2024-03-25T07:36:03;6.28;;;1.35;;
64712;SDS011;51140;45.340;5.980;2024-03-25T07:38:29;2.60;;;1.00;;
64712;SDS011;51140;45.340;5.980;2024-03-25T07:40:54;2.67;;;1.10;;
64712;SDS011;51140;45.340;5.980;2024-03-25T07:43:19;4.32;;;1.38;;
64712;SDS011;51140;45.340;5.980;2024-03-25T07:45:45;4.05;;;1.30;;
64712;SDS011;51140;45.340;5.980;2024-03-25T07:48:10;3.60;;;1.30;;
64712;SDS011;51140;45.340;5.980;2024-03-25T07:50:35;4.13;;;1.50;;
64712;SDS011;51140;45.340;5.980;2024-03-25T07:53:01;3.78;;;1.30;;
64712;SDS011;51140;45.340;5.980;2024-03-25T07:55:26;3.33;;;1.08;;
64712;SDS011;51140;45.340;5.980;2024-03-25T07:57:51;3.72;;;1.38;;
64712;SDS011;51140;45.340;5.980;2024-03-25T08:00:17;3.50;;;1.40;;
64712;SDS011;51140;45.340;5.980;2024-03-25T08:02:42;4.03;;;1.50;;
64712;SDS011;51140;45.340;5.980;2024-03-25T08:05:08;4.25;;;1.40;;
64712;SDS011;51140;45.340;5.980;2024-03-25T08:07:33;3.90;;;1.30;;
64712;SDS011;51140;45.340;5.980;2024-03-25T08:09:59;4.07;;;1.25;;
64712;SDS011;51140;45.340;5.980;2024-03-25T08:12:24;5.20;;;1.35;;
64712;SDS011;51140;45.340;5.980;2024-03-25T08:14:49;3.75;;;1.38;;
64712;SDS011;51140;45.340;5.980;2024-03-25T08:17:15;3.15;;;1.05;;
64712;SDS011;51140;45.340;5.980;2024-03-25T08:19:40;4.22;;;1.52;;
64712;SDS011;51140;45.340;5.980;2024-03-25T08:22:05;3.83;;;1.60;;
64712;SDS011;51140;45.340;5.980;2024-03-25T08:24:31;4.03;;;1.52;;
64712;SDS011;51140;45.340;5.980;2024-03-25T08:26:56;3.95;;;1.60;;
64712;SDS011;51140;45.340;5.980;2024-03-25T08:29:21;4.47;;;1.60;;
64712;SDS011;51140;45.340;5.980;2024-03-25T08:31:47;3.35;;;1.25;;
64712;SDS011;51140;45.340;5.980;2024-03-25T08:34:12;4.30;;;1.42;;
64712;SDS011;51140;45.340;5.980;2024-03-25T08:36:37;3.55;;;1.20;;
64712;SDS011;51140;45.340;5.980;2024-03-25T08:39:03;3.22;;;1.20;;
64712;SDS011;51140;45.340;5.980;2024-03-25T08:41:29;4.25;;;1.30;;
64712;SDS011;51140;45.340;5.980;2024-03-25T08:43:54;3.50;;;1.35;;
64712;SDS011;51140;45.340;5.980;2024-03-25T08:46:20;4.90;;;1.48;;
64712;SDS011;51140;45.340;5.980;2024-03-25T08:48:45;3.20;;;1.00;;
64712;SDS011;51140;45.340;5.980;2024-03-25T08:51:10;5.35;;;1.20;;
64712;SDS011;51140;45.340;5.980;2024-03-25T08:53:36;4.43;;;1.48;;
64712;SDS011;51140;45.340;5.980;2024-03-25T08:56:01;4.47;;;1.40;;
64712;SDS011;51140;45.340;5.980;2024-03-25T08:58:26;3.75;;;1.10;;
64712;SDS011;51140;45.340;5.980;2024-03-25T09:00:52;4.20;;;1.05;;
64712;SDS011;51140;45.340;5.980;2024-03-25T09:03:17;3.92;;;1.10;;
64712;SDS011;51140;45.340;5.980;2024-03-25T09:05:42;4.47;;;1.05;;
64712;SDS011;51140;45.340;5.980;2024-03-25T09:08:08;3.13;;;0.90;;
64712;SDS011;51140;45.340;5.980;2024-03-25T09:10:36;4.20;;;0.70;;
64712;SDS011;51140;45.340;5.980;2024-03-25T09:13:20;2.75;;;1.00;;
64712;SDS011;51140;45.340;5.980;2024-03-25T09:15:45;2.92;;;0.90;;
64712;SDS011;51140;45.340;5.980;2024-03-25T09:18:11;2.58;;;0.90;;
64712;SDS011;51140;45.340;5.980;2024-03-25T09:20:36;2.97;;;0.80;;
64712;SDS011;51140;45.340;5.980;2024-03-25T09:23:01;3.40;;;0.80;;
64712;SDS011;51140;45.340;5.980;2024-03-25T09:25:27;3.55;;;1.08;;
64712;SDS011;51140;45.340;5.980;2024-03-25T09:27:53;3.83;;;1.00;;
64712;SDS011;51140;45.340;5.980;2024-03-25T09:30:18;3.92;;;0.93;;
64712;SDS011;51140;45.340;5.980;2024-03-25T09:32:44;1.30;;;0.63;;
64712;SDS011;51140;45.340;5.980;2024-03-25T09:35:10;2.47;;;0.70;;
64712;SDS011;51140;45.340;5.980;2024-03-25T09:37:36;2.05;;;0.60;;
64712;SDS011;51140;45.340;5.980;2024-03-25T09:40:02;1.75;;;0.60;;
64712;SDS011;51140;45.340;5.980;2024-03-25T09:42:37;2.45;;;0.77;;
64712;SDS011;51140;45.340;5.980;2024-03-25T09:45:10;2.63;;;0.95;;
64712;SDS011;51140;45.340;5.980;2024-03-25T09:47:37;2.30;;;0.60;;
64712;SDS011;51140;45.340;5.980;2024-03-25T09:50:05;4.03;;;1.05;;
64712;SDS011;51140;45.340;5.980;2024-03-25T09:52:33;3.85;;;1.02;;
64712;SDS011;51140;45.340;5.980;2024-03-25T09:54:59;3.33;;;1.15;;
64712;SDS011;51140;45.340;5.980;2024-03-25T09:57:24;2.47;;;1.10;;
64712;SDS011;51140;45.340;5.980;2024-03-25T09:59:50;1.63;;;0.60;;
64712;SDS011;51140;45.340;5.980;2024-03-25T10:02:16;1.92;;;0.68;;
64712;SDS011;51140;45.340;5.980;2024-03-25T10:04:46;1.83;;;0.70;;
64712;SDS011;51140;45.340;5.980;2024-03-25T10:07:21;2.67;;;0.90;;
64712;SDS011;51140;45.340;5.980;2024-03-25T10:09:47;1.67;;;0.60;;
64712;SDS011;51140;45.340;5.980;2024-03-25T10:12:13;3.40;;;0.80;;
64712;SDS011;51140;45.340;5.980;2024-03-25T10:14:39;2.60;;;0.93;;
64712;SDS011;51140;45.340;5.980;2024-03-25T10:17:05;1.35;;;0.60;;
64712;SDS011;51140;45.340;5.980;2024-03-25T10:19:31;1.58;;;0.50;;
64712;SDS011;51140;45.340;5.980;2024-03-25T10:22:05;2.72;;;0.98;;
64712;SDS011;51140;45.340;5.980;2024-03-25T10:24:38;8.48;;;2.00;;
64712;SDS011;51140;45.340;5.980;2024-03-25T10:27:05;3.08;;;1.10;;
64712;SDS011;51140;45.340;5.980;2024-03-25T10:29:31;3.33;;;1.00;;
64712;SDS011;51140;45.340;5.980;2024-03-25T10:31:59;5.82;;;1.10;;
64712;SDS011;51140;45.340;5.980;2024-03-25T10:34:25;4.85;;;1.38;;
64712;SDS011;51140;45.340;5.980;2024-03-25T10:36:51;2.50;;;0.80;;
64712;SDS011;51140;45.340;5.980;2024-03-25T10:39:27;3.72;;;1.38;;
64712;SDS011;51140;45.340;5.980;2024-03-25T10:41:55;3.50;;;1.10;;
64712;SDS011;51140;45.340;5.980;2024-03-25T10:44:25;3.53;;;1.20;;
64712;SDS011;51140;45.340;5.980;2024-03-25T10:46:53;3.72;;;1.30;;
64712;SDS011;51140;45.340;5.980;2024-03-25T10:49:33;3.53;;;1.20;;
64712;SDS011;51140;45.340;5.980;2024-03-25T10:52:03;4.25;;;1.40;;
64712;SDS011;51140;45.340;5.980;2024-03-25T10:54:31;4.05;;;1.33;;
64712;SDS011;51140;45.340;5.980;2024-03-25T10:57:00;3.85;;;1.08;;
64712;SDS011;51140;45.340;5.980;2024-03-25T10:59:28;4.05;;;1.00;;
64712;SDS011;51140;45.340;5.980;2024-03-25T11:01:55;3.67;;;1.10;;
64712;SDS011;51140;45.340;5.980;2024-03-25T11:04:21;4.05;;;1.42;;
64712;SDS011;51140;45.340;5.980;2024-03-25T11:06:48;3.75;;;1.20;;
64712;SDS011;51140;45.340;5.980;2024-03-25T11:09:23;3.92;;;0.90;;
64712;SDS011;51140;45.340;5.980;2024-03-25T11:11:51;3.38;;;1.15;;
64712;SDS011;51140;45.340;5.980;2024-03-25T11:14:19;5.80;;;0.85;;
64712;SDS011;51140;45.340;5.980;2024-03-25T11:16:54;3.72;;;1.00;;
64712;SDS011;51140;45.340;5.980;2024-03-25T11:19:20;4.53;;;1.00;;
64712;SDS011;51140;45.340;5.980;2024-03-25T11:21:50;1.65;;;0.65;;
64712;SDS011;51140;45.340;5.980;2024-03-25T11:24:15;6.20;;;1.15;;
64712;SDS011;51140;45.340;5.980;2024-03-25T11:26:51;3.83;;;1.15;;
64712;SDS011;51140;45.340;5.980;2024-03-25T11:29:18;2.92;;;1.00;;
64712;SDS011;51140;45.340;5.980;2024-03-25T11:31:43;2.78;;;0.90;;
64712;SDS011;51140;45.340;5.980;2024-03-25T11:34:10;3.92;;;1.25;;
64712;SDS011;51140;45.340;5.980;2024-03-25T11:36:35;4.03;;;1.10;;
64712;SDS011;51140;45.340;5.980;2024-03-25T11:39:01;9.68;;;2.13;;
64712;SDS011;51140;45.340;5.980;2024-03-25T11:41:34;1.67;;;0.80;;
64712;SDS011;51140;45.340;5.980;2024-03-25T11:44:09;4.93;;;1.30;;
64712;SDS011;51140;45.340;5.980;2024-03-25T11:46:38;4.28;;;1.10;;
64712;SDS011;51140;45.340;5.980;2024-03-25T11:49:12;4.28;;;1.35;;
64712;SDS011;51140;45.340;5.980;2024-03-25T11:51:39;6.10;;;1.93;;
64712;SDS011;51140;45.340;5.980;2024-03-25T11:54:06;3.95;;;1.27;;
64712;SDS011;51140;45.340;5.980;2024-03-25T11:56:31;4.47;;;1.25;;
64712;SDS011;51140;45.340;5.980;2024-03-25T11:58:57;4.00;;;0.90;;
64712;SDS011;51140;45.340;5.980;2024-03-25T12:01:25;3.30;;;1.10;;
64712;SDS011;51140;45.340;5.980;2024-03-25T12:03:51;3.50;;;0.95;;
64712;SDS011;51140;45.340;5.980;2024-03-25T12:06:16;3.58;;;0.90;;
64712;SDS011;51140;45.340;5.980;2024-03-25T12:08:41;5.05;;;1.58;;
64712;SDS011;51140;45.340;5.980;2024-03-25T12:11:27;2.53;;;0.80;;
64712;SDS011;51140;45.340;5.980;2024-03-25T12:13:52;3.33;;;0.80;;
64712;SDS011;51140;45.340;5.980;2024-03-25T12:16:18;5.72;;;1.30;;
64712;SDS011;51140;45.340;5.980;2024-03-25T12:18:44;4.03;;;1.20;;
64712;SDS011;51140;45.340;5.980;2024-03-25T12:21:10;11.82;;;1.70;;
64712;SDS011;51140;45.340;5.980;2024-03-25T12:23:36;2.83;;;1.10;;
64712;SDS011;51140;45.340;5.980;2024-03-25T12:26:02;3.22;;;0.90;;
64712;SDS011;51140;45.340;5.980;2024-03-25T12:28:31;2.88;;;0.90;;
64712;SDS011;51140;45.340;5.980;2024-03-25T12:31:00;3.63;;;0.80;;
64712;SDS011;51140;45.340;5.980;2024-03-25T12:33:25;3.97;;;0.77;;
64712;SDS011;51140;45.340;5.980;2024-03-25T12:35:51;3.38;;;0.80;;
64712;SDS011;51140;45.340;5.980;2024-03-25T12:38:24;4.22;;;0.80;;
64712;SDS011;51140;45.340;5.980;2024-03-25T12:40:53;4.18;;;1.05;;
64712;SDS011;51140;45.340;5.980;2024-03-25T12:43:19;8.75;;;1.17;;
64712;SDS011;51140;45.340;5.980;2024-03-25T12:45:45;2.58;;;0.80;;
64712;SDS011;51140;45.340;5.980;2024-03-25T12:48:10;3.13;;;0.90;;
64712;SDS011;51140;45.340;5.980;2024-03-25T12:50:36;8.75;;;1.23;;
64712;SDS011;51140;45.340;5.980;2024-03-25T12:53:02;5.15;;;0.80;;
64712;SDS011;51140;45.340;5.980;2024-03-25T12:55:29;3.80;;;1.05;;
64712;SDS011;51140;45.340;5.980;2024-03-25T12:57:54;3.97;;;1.10;;
64712;SDS011;51140;45.340;5.980;2024-03-25T13:00:20;3.53;;;1.10;;
64712;SDS011;51140;45.340;5.980;2024-03-25T13:02:45;3.33;;;1.00;;
64712;SDS011;51140;45.340;5.980;2024-03-25T13:05:11;3.40;;;0.98;;
64712;SDS011;51140;45.340;5.980;2024-03-25T13:07:36;6.28;;;1.30;;
64712;SDS011;51140;45.340;5.980;2024-03-25T13:10:01;4.50;;;1.50;;
64712;SDS011;51140;45.340;5.980;2024-03-25T13:12:29;5.85;;;1.05;;
64712;SDS011;51140;45.340;5.980;2024-03-25T13:14:55;4.82;;;1.10;;
64712;SDS011;51140;45.340;5.980;2024-03-25T13:17:21;4.00;;;1.38;;
64712;SDS011;51140;45.340;5.980;2024-03-25T13:19:46;3.47;;;1.30;;
64712;SDS011;51140;45.340;5.980;2024-03-25T13:22:12;3.60;;;1.00;;
64712;SDS011;51140;45.340;5.980;2024-03-25T13:24:37;3.78;;;0.90;;
64712;SDS011;51140;45.340;5.980;2024-03-25T13:27:02;5.03;;;1.55;;
64712;SDS011;51140;45.340;5.980;2024-03-25T13:29:28;2.72;;;1.05;;
64712;SDS011;51140;45.340;5.980;2024-03-25T13:31:53;10.57;;;1.75;;
64712;SDS011;51140;45.340;5.980;2024-03-25T13:34:18;6.15;;;1.58;;
64712;SDS011;51140;45.340;5.980;2024-03-25T13:36:44;2.95;;;0.80;;
64712;SDS011;51140;45.340;5.980;2024-03-25T13:39:09;5.35;;;1.00;;
64712;SDS011;51140;45.340;5.980;2024-03-25T13:41:35;6.10;;;1.20;;
64712;SDS011;51140;45.340;5.980;2024-03-25T13:44:00;5.28;;;1.10;;
64712;SDS011;51140;45.340;5.980;2024-03-25T13:46:26;3.92;;;1.27;;
64712;SDS011;51140;45.340;5.980;2024-03-25T13:48:51;2.03;;;0.77;;
64712;SDS011;51140;45.340;5.980;2024-03-25T13:51:17;9.40;;;1.13;;
64712;SDS011;51140;45.340;5.980;2024-03-25T13:53:42;7.65;;;1.48;;
64712;SDS011;51140;45.340;5.980;2024-03-25T13:56:07;3.80;;;1.00;;
64712;SDS011;51140;45.340;5.980;2024-03-25T13:58:33;5.22;;;1.10;;
64712;SDS011;51140;45.340;5.980;2024-03-25T14:00:58;3.42;;;1.10;;
64712;SDS011;51140;45.340;5.980;2024-03-25T14:03:25;4.13;;;1.23;;
64712;SDS011;51140;45.340;5.980;2024-03-25T14:05:51;3.53;;;1.00;;
64712;SDS011;51140;45.340;5.980;2024-03-25T14:08:16;4.60;;;1.25;;
64712;SDS011;51140;45.340;5.980;2024-03-25T14:10:42;3.70;;;1.15;;
64712;SDS011;51140;45.340;5.980;2024-03-25T14:13:08;3.88;;;1.27;;
64712;SDS011;51140;45.340;5.980;2024-03-25T14:15:33;6.18;;;1.40;;
64712;SDS011;51140;45.340;5.980;2024-03-25T14:17:58;5.80;;;1.10;;
64712;SDS011;51140;45.340;5.980;2024-03-25T14:20:24;5.10;;;1.10;;
64712;SDS011;51140;45.340;5.980;2024-03-25T14:22:49;12.13;;;1.50;;
64712;SDS011;51140;45.340;5.980;2024-03-25T14:25:15;4.72;;;1.30;;
64712;SDS011;51140;45.340;5.980;2024-03-25T14:27:40;3.08;;;1.10;;
64712;SDS011;51140;45.340;5.980;2024-03-25T14:30:06;3.83;;;1.00;;
64712;SDS011;51140;45.340;5.980;2024-03-25T14:32:32;4.13;;;1.58;;
64712;SDS011;51140;45.340;5.980;2024-03-25T14:34:58;4.85;;;1.30;;
64712;SDS011;51140;45.340;5.980;2024-03-25T14:37:23;5.63;;;1.50;;
64712;SDS011;51140;45.340;5.980;2024-03-25T14:39:49;6.13;;;1.33;;
64712;SDS011;51140;45.340;5.980;2024-03-25T14:42:14;3.55;;;1.20;;
64712;SDS011;51140;45.340;5.980;2024-03-25T14:44:40;5.15;;;1.40;;